Aviation Digital Data Service (ADDS)

Output produced by METARs form (1337 UTC 26 August 2016)
found at http://www.aviationweather.gov/adds/metars/
 
METAR text: EPLL 261330Z 14011KT CAVOK 27/10 Q1022
Conditions at: EPLL (LODZ/LUBLINEK , PL) observed 1330 UTC 26 August 2016
Temperature: 27.0°C (81°F)
Dewpoint: 10.0°C (50°F) [RH = 34%]
Pressure (altimeter): 30.18 inches Hg (1022.0 mb)
Winds: from the SE (140 degrees) at 13 MPH (11 knots; 5.7 m/s)
Visibility: 6 or more miles (10+ km)
Ceiling: ceiling and visibility are OK
Clouds: unknown
Weather: no significant weather observed at this time

Forecast for: EPLL (LODZ/LUBLINEK , PL)
Text: TAF EPLL 261130Z 2612/2712 16010KT CAVOK
Forecast period: 1200 UTC 26 August 2016 to 1200 UTC 27 August 2016
Forecast type: FROM: standard forecast or significant change
Winds: from the SSE (160 degrees) at 12 MPH (10 knots; 5.2 m/s)
Visibility: 6 or more miles (10+ km)
Clouds: not forecast
Weather: NSW  (no significant weather)